Time;durP1;ratioP1;P1;durP2;ratioP2;P2;SDS_P1;SDS_P2;PMS_P1;PMS_P2;Temp;Humidity;BMP_temperature;BMP_pressure;BME280_temperature;BME280_humidity;BME280_pressure;Samples;Min_cycle;Max_cycle;Signal;HPM_P1;HPM_P2
2021/07/22 00:00:18;;;;;;;;;;;18.70;99.90;;;;;;5050688;28;20284;-86
2021/07/22 00:02:45;;;;;;;;;;;18.70;99.90;;;;;;5049293;28;19951;-86
2021/07/22 00:05:10;;;;;;;;;;;18.70;99.90;;;;;;5030331;28;20410;-86
2021/07/22 00:07:37;;;;;;;;;;;18.60;99.90;;;;;;5049179;28;19928;-86
2021/07/22 00:10:03;;;;;;;;;;;18.60;99.90;;;;;;5046548;28;20023;-86
2021/07/22 00:12:29;;;;;;;;;;;18.60;99.90;;;;;;5030354;28;19999;-86
2021/07/22 00:14:54;;;;;;;;;;;18.60;99.90;;;;;;5054069;28;19924;-86
2021/07/22 00:17:20;;;;;;;;;;;18.60;99.90;;;;;;5013032;28;19970;-86
2021/07/22 00:19:46;;;;;;;;;;;18.60;99.90;;;;;;5028753;28;19975;-86
2021/07/22 00:22:12;;;;;;;;;;;18.60;99.90;;;;;;5050384;28;19920;-85
2021/07/22 00:24:37;;;;;;;;;;;18.50;99.90;;;;;;5031082;28;19921;-86
2021/07/22 00:27:03;;;;;;;;;;;18.50;99.90;;;;;;5028970;28;19929;-86
2021/07/22 00:29:30;;;;;;;;;;;18.50;99.90;;;;;;5030341;28;19927;-86
2021/07/22 00:31:57;;;;;;;;;;;18.40;99.90;;;;;;5030812;28;20346;-86
2021/07/22 00:34:23;;;;;;;;;;;18.40;99.90;;;;;;5047089;28;19932;-85
2021/07/22 00:36:49;;;;;;;;;;;18.40;99.90;;;;;;5048757;28;20033;-85
2021/07/22 00:39:16;;;;;;;;;;;18.40;99.90;;;;;;5046177;28;19925;-84
2021/07/22 00:41:42;;;;;;;;;;;18.40;99.90;;;;;;5032251;28;20387;-86
2021/07/22 00:44:08;;;;;;;;;;;18.40;99.90;;;;;;5027206;28;19937;-85
2021/07/22 00:46:33;;;;;;;;;;;18.50;99.90;;;;;;5049510;28;19966;-85
2021/07/22 00:48:59;;;;;;;;;;;18.40;99.90;;;;;;5046348;28;19928;-86
2021/07/22 00:51:25;;;;;;;;;;;18.50;99.90;;;;;;5012865;28;20044;-85
2021/07/22 00:53:51;;;;;;;;;;;18.40;99.90;;;;;;5030340;28;19944;-85
2021/07/22 00:56:17;;;;;;;;;;;18.40;99.90;;;;;;5028816;28;19921;-86
2021/07/22 00:58:42;;;;;;;;;;;18.40;99.90;;;;;;5062919;28;19924;-86
2021/07/22 01:01:08;;;;;;;;;;;18.40;99.90;;;;;;5020490;28;19979;-86
2021/07/22 01:03:38;;;;;;;;;;;18.40;99.90;;;;;;5044982;28;19924;-85
2021/07/22 01:06:04;;;;;;;;;;;18.40;99.90;;;;;;5014989;28;20015;-86
2021/07/22 01:08:30;;;;;;;;;;;18.30;99.90;;;;;;5007321;28;20020;-86
2021/07/22 01:10:55;;;;;;;;;;;18.30;99.90;;;;;;5026147;28;20011;-86
2021/07/22 01:13:21;;;;;;;;;;;18.30;99.90;;;;;;5017396;28;19925;-85
2021/07/22 01:15:47;;;;;;;;;;;18.30;99.90;;;;;;5011991;28;19921;-86
2021/07/22 01:18:12;;;;;;;;;;;18.30;99.90;;;;;;5014625;28;20348;-86
2021/07/22 01:20:38;;;;;;;;;;;18.30;99.90;;;;;;5027228;28;20019;-86
2021/07/22 01:23:04;;;;;;;;;;;18.30;99.90;;;;;;5041390;28;20380;-85
2021/07/22 01:25:30;;;;;;;;;;;18.40;99.90;;;;;;5035785;28;19934;-84
2021/07/22 01:27:56;;;;;;;;;;;18.40;99.90;;;;;;5030262;28;19950;-86
2021/07/22 01:30:21;;;;;;;;;;;18.40;99.90;;;;;;5049990;28;19968;-85
2021/07/22 01:32:47;;;;;;;;;;;18.40;99.90;;;;;;5029772;28;20418;-86
2021/07/22 01:35:14;;;;;;;;;;;18.40;99.90;;;;;;5020822;28;19929;-86
2021/07/22 01:37:40;;;;;;;;;;;18.40;99.90;;;;;;5042787;28;20383;-86
2021/07/22 01:40:06;;;;;;;;;;;18.30;99.90;;;;;;5031032;28;19924;-85
2021/07/22 01:42:32;;;;;;;;;;;18.40;99.90;;;;;;5023711;28;20395;-85
2021/07/22 01:44:57;;;;;;;;;;;18.40;99.90;;;;;;5007298;28;20447;-86
2021/07/22 01:47:23;;;;;;;;;;;18.30;99.90;;;;;;5024368;28;20011;-85
2021/07/22 01:49:49;;;;;;;;;;;18.40;99.90;;;;;;5022625;28;19929;-86
2021/07/22 01:52:17;;;;;;;;;;;18.30;99.90;;;;;;5027169;28;20015;-86
2021/07/22 01:54:43;;;;;;;;;;;18.30;99.90;;;;;;5040594;28;19925;-85
2021/07/22 01:57:09;;;;;;;;;;;18.40;99.90;;;;;;5007172;28;20366;-86
2021/07/22 01:59:38;;;;;;;;;;;18.30;99.90;;;;;;5028601;28;19959;-86
2021/07/22 02:02:10;;;;;;;;;;;18.20;99.90;;;;;;5048776;28;19975;-86
2021/07/22 02:04:37;;;;;;;;;;;18.20;99.90;;;;;;5033325;28;20047;-85
2021/07/22 02:07:02;;;;;;;;;;;18.10;99.90;;;;;;5047814;28;19925;-86
2021/07/22 02:09:28;;;;;;;;;;;18.20;99.90;;;;;;5049422;28;21461;-85
2021/07/22 02:11:55;;;;;;;;;;;18.30;99.90;;;;;;5051489;28;20457;-85
2021/07/22 02:14:21;;;;;;;;;;;18.20;99.90;;;;;;5047031;28;19930;-86
2021/07/22 02:16:47;;;;;;;;;;;18.30;99.90;;;;;;5051835;28;19927;-85
2021/07/22 02:19:13;;;;;;;;;;;18.30;99.90;;;;;;5032007;28;19925;-85
2021/07/22 02:21:39;;;;;;;;;;;18.20;99.90;;;;;;5030201;28;19928;-86
2021/07/22 02:24:05;;;;;;;;;;;18.20;99.90;;;;;;5047154;28;19925;-85
2021/07/22 02:26:31;;;;;;;;;;;18.20;99.90;;;;;;5047935;28;19925;-85
2021/07/22 02:28:57;;;;;;;;;;;18.20;99.90;;;;;;5047809;28;20360;-86
2021/07/22 02:31:22;;;;;;;;;;;18.20;99.90;;;;;;5032359;28;19964;-85
2021/07/22 02:33:48;;;;;;;;;;;18.20;99.90;;;;;;5033910;28;19917;-85
2021/07/22 02:36:14;;;;;;;;;;;18.20;99.90;;;;;;5028247;28;19924;-86
2021/07/22 02:38:40;;;;;;;;;;;18.20;99.90;;;;;;5051456;28;20466;-84
2021/07/22 02:41:05;;;;;;;;;;;18.20;99.90;;;;;;5031365;28;19925;-85
2021/07/22 02:43:32;;;;;;;;;;;18.20;99.90;;;;;;5048378;28;19928;-85
2021/07/22 02:45:58;;;;;;;;;;;18.20;99.90;;;;;;5028263;28;20391;-85
2021/07/22 02:48:23;;;;;;;;;;;18.20;99.90;;;;;;5031805;28;19978;-86
2021/07/22 02:50:49;;;;;;;;;;;18.20;99.90;;;;;;5046491;28;19927;-85
2021/07/22 02:53:15;;;;;;;;;;;18.10;99.90;;;;;;5045688;28;19931;-85
2021/07/22 02:55:41;;;;;;;;;;;18.10;99.90;;;;;;5048583;28;20031;-86
2021/07/22 02:58:07;;;;;;;;;;;18.10;99.90;;;;;;5027819;28;20016;-85
2021/07/22 03:00:33;;;;;;;;;;;18.20;99.90;;;;;;5016391;28;19928;-86
2021/07/22 03:02:59;;;;;;;;;;;18.10;99.90;;;;;;5034492;28;19925;-86
2021/07/22 03:05:25;;;;;;;;;;;18.10;99.90;;;;;;5031195;28;20024;-85
2021/07/22 03:07:50;;;;;;;;;;;18.20;99.90;;;;;;5030091;28;20027;-85
2021/07/22 03:10:16;;;;;;;;;;;18.10;99.90;;;;;;5018142;28;20398;-85
2021/07/22 03:12:42;;;;;;;;;;;18.20;99.90;;;;;;5048342;28;20315;-85
2021/07/22 03:15:08;;;;;;;;;;;18.20;99.90;;;;;;5009719;28;20344;-85
2021/07/22 03:17:33;;;;;;;;;;;18.20;99.90;;;;;;5047086;28;19990;-86
2021/07/22 03:19:59;;;;;;;;;;;18.20;99.90;;;;;;5034321;28;20368;-85
2021/07/22 03:22:24;;;;;;;;;;;18.20;99.90;;;;;;5027942;28;20015;-85
2021/07/22 03:24:51;;;;;;;;;;;18.10;99.90;;;;;;5037568;28;19927;-85
2021/07/22 03:27:17;;;;;;;;;;;18.10;99.90;;;;;;5024622;28;19925;-85
2021/07/22 03:29:43;;;;;;;;;;;18.10;99.90;;;;;;5027622;28;19929;-86
2021/07/22 03:32:09;;;;;;;;;;;18.10;99.90;;;;;;5031299;28;19924;-85
2021/07/22 03:34:35;;;;;;;;;;;18.10;99.90;;;;;;5044315;28;20008;-86
2021/07/22 03:37:01;;;;;;;;;;;18.10;99.90;;;;;;5038709;28;19928;-85
2021/07/22 03:39:28;;;;;;;;;;;18.10;99.90;;;;;;5046819;28;20423;-85
2021/07/22 03:41:54;;;;;;;;;;;18.00;99.90;;;;;;5046828;28;19921;-85
2021/07/22 03:44:19;;;;;;;;;;;18.10;99.90;;;;;;5021160;28;19921;-85
2021/07/22 03:46:45;;;;;;;;;;;18.10;99.90;;;;;;5013246;28;19928;-85
2021/07/22 03:49:11;;;;;;;;;;;18.10;99.90;;;;;;5024187;28;19972;-86
2021/07/22 03:51:36;;;;;;;;;;;18.00;99.90;;;;;;5031053;28;20124;-86
2021/07/22 03:54:03;;;;;;;;;;;18.10;99.90;;;;;;5033747;28;19964;-85
2021/07/22 03:56:30;;;;;;;;;;;18.10;99.90;;;;;;5041971;28;20015;-86
2021/07/22 03:58:55;;;;;;;;;;;18.10;99.90;;;;;;5046333;28;20015;-85
2021/07/22 04:01:22;;;;;;;;;;;18.00;99.90;;;;;;5027563;28;19972;-84
2021/07/22 04:03:47;;;;;;;;;;;18.10;99.90;;;;;;5047076;28;20405;-85
2021/07/22 04:06:13;;;;;;;;;;;18.00;99.90;;;;;;5007649;28;19990;-85
2021/07/22 04:08:39;;;;;;;;;;;18.10;99.90;;;;;;5026989;28;19925;-86
2021/07/22 04:11:06;;;;;;;;;;;18.00;99.90;;;;;;5033265;28;19925;-86
2021/07/22 04:13:32;;;;;;;;;;;18.00;99.90;;;;;;5013802;28;19971;-85
2021/07/22 04:16:02;;;;;;;;;;;18.00;99.90;;;;;;5037338;28;19933;-84
2021/07/22 04:18:28;;;;;;;;;;;18.10;99.90;;;;;;5047180;28;19951;-86
2021/07/22 04:20:54;;;;;;;;;;;18.10;99.90;;;;;;5047336;28;19925;-85
2021/07/22 04:23:20;;;;;;;;;;;18.10;99.90;;;;;;5048466;28;19931;-86
2021/07/22 04:25:50;;;;;;;;;;;18.00;99.90;;;;;;5013455;28;19935;-84
2021/07/22 04:28:16;;;;;;;;;;;18.00;99.90;;;;;;5037847;28;20502;-86
2021/07/22 04:30:41;;;;;;;;;;;18.10;99.90;;;;;;5026725;28;19921;-86
2021/07/22 04:33:07;;;;;;;;;;;18.00;99.90;;;;;;5015283;28;19920;-85
2021/07/22 04:35:33;;;;;;;;;;;18.00;99.90;;;;;;5026748;28;19932;-84
2021/07/22 04:37:59;;;;;;;;;;;18.00;99.90;;;;;;5035736;28;20379;-86
2021/07/22 04:40:24;;;;;;;;;;;18.00;99.90;;;;;;5047188;28;20122;-85
2021/07/22 04:42:50;;;;;;;;;;;18.00;99.90;;;;;;5014134;28;20007;-86
2021/07/22 04:45:16;;;;;;;;;;;18.00;99.90;;;;;;5017130;28;19979;-86
2021/07/22 04:47:42;;;;;;;;;;;18.00;99.90;;;;;;5017244;28;20391;-86
2021/07/22 04:50:08;;;;;;;;;;;18.00;99.90;;;;;;5014742;28;19975;-86
2021/07/22 04:52:34;;;;;;;;;;;18.00;99.90;;;;;;5051145;28;19925;-85
2021/07/22 04:54:59;;;;;;;;;;;17.90;99.90;;;;;;4995808;28;19924;-86
2021/07/22 04:57:25;;;;;;;;;;;17.90;99.90;;;;;;5031432;28;19929;-86
2021/07/22 04:59:51;;;;;;;;;;;17.90;99.90;;;;;;5028071;28;19924;-86
2021/07/22 05:02:19;;;;;;;;;;;17.90;99.90;;;;;;5036538;28;19928;-86
2021/07/22 05:04:45;;;;;;;;;;;18.00;99.90;;;;;;5054173;28;20387;-85
2021/07/22 05:07:13;;;;;;;;;;;17.90;99.90;;;;;;5052702;28;19931;-86
2021/07/22 05:09:39;;;;;;;;;;;17.90;99.90;;;;;;5033344;28;19931;-85
2021/07/22 05:12:09;;;;;;;;;;;17.90;99.90;;;;;;5037245;28;19920;-85
2021/07/22 05:14:35;;;;;;;;;;;17.90;99.90;;;;;;5053561;28;19932;-86
2021/07/22 05:17:01;;;;;;;;;;;17.90;99.90;;;;;;5033026;28;19925;-85
2021/07/22 05:19:27;;;;;;;;;;;17.90;99.90;;;;;;5053569;28;20291;-86
2021/07/22 05:21:52;;;;;;;;;;;17.90;99.90;;;;;;5070094;28;20302;-86
2021/07/22 05:24:18;;;;;;;;;;;18.00;99.90;;;;;;5049910;28;20012;-84
2021/07/22 05:26:44;;;;;;;;;;;18.00;99.90;;;;;;5032251;28;19924;-86
2021/07/22 05:29:10;;;;;;;;;;;18.00;99.90;;;;;;5033250;28;20030;-86
2021/07/22 05:31:39;;;;;;;;;;;18.00;99.90;;;;;;5043679;28;20016;-86
2021/07/22 05:34:05;;;;;;;;;;;18.00;99.90;;;;;;5061449;28;19931;-86
2021/07/22 05:36:30;;;;;;;;;;;18.00;99.90;;;;;;5017071;28;19928;-86
2021/07/22 05:38:56;;;;;;;;;;;18.00;99.90;;;;;;5011722;28;19982;-85
2021/07/22 05:41:22;;;;;;;;;;;18.10;99.90;;;;;;5043640;28;19955;-86
2021/07/22 05:43:47;;;;;;;;;;;18.10;99.90;;;;;;5034103;28;19924;-86
2021/07/22 05:46:16;;;;;;;;;;;18.00;99.90;;;;;;5029584;28;19920;-86
2021/07/22 05:48:42;;;;;;;;;;;18.00;99.90;;;;;;5043665;28;20287;-85
2021/07/22 05:51:08;;;;;;;;;;;18.10;99.90;;;;;;5019479;28;19924;-85
2021/07/22 05:53:33;;;;;;;;;;;18.10;99.90;;;;;;5020118;28;20271;-86
2021/07/22 05:56:00;;;;;;;;;;;18.10;99.90;;;;;;5035001;28;19928;-85
2021/07/22 05:58:26;;;;;;;;;;;18.10;99.90;;;;;;5041497;28;19928;-86
2021/07/22 06:00:52;;;;;;;;;;;18.10;99.90;;;;;;5052432;28;19928;-86
2021/07/22 06:03:18;;;;;;;;;;;18.10;99.90;;;;;;5052245;28;19931;-86
2021/07/22 06:05:43;;;;;;;;;;;18.10;99.90;;;;;;5035586;28;20298;-86
2021/07/22 06:08:09;;;;;;;;;;;18.10;99.90;;;;;;5052557;28;19928;-86
2021/07/22 06:10:36;;;;;;;;;;;18.10;99.90;;;;;;5031857;28;19947;-86
2021/07/22 06:13:02;;;;;;;;;;;18.20;99.90;;;;;;5052845;28;20402;-86
2021/07/22 06:15:28;;;;;;;;;;;18.10;99.90;;;;;;5052022;28;19924;-86
2021/07/22 06:17:54;;;;;;;;;;;18.10;99.90;;;;;;5018799;28;19924;-86
2021/07/22 06:20:19;;;;;;;;;;;18.20;99.90;;;;;;5035536;28;20322;-86
2021/07/22 06:22:45;;;;;;;;;;;18.20;99.90;;;;;;5016385;28;20438;-86
2021/07/22 06:25:13;;;;;;;;;;;18.20;99.90;;;;;;5035277;28;19924;-86
2021/07/22 06:27:39;;;;;;;;;;;18.20;99.90;;;;;;5051179;28;19950;-86
2021/07/22 06:30:05;;;;;;;;;;;18.20;99.90;;;;;;5035508;28;19924;-85
2021/07/22 06:32:30;;;;;;;;;;;18.20;99.90;;;;;;5069934;28;20042;-86
2021/07/22 06:34:56;;;;;;;;;;;18.20;99.90;;;;;;5052158;28;19925;-86
2021/07/22 06:37:22;;;;;;;;;;;18.20;99.90;;;;;;5050760;28;20462;-86
2021/07/22 06:39:47;;;;;;;;;;;18.30;99.90;;;;;;5035183;28;20011;-86
2021/07/22 06:42:13;;;;;;;;;;;18.30;99.90;;;;;;5034870;28;20391;-86
2021/07/22 06:44:39;;;;;;;;;;;18.30;99.90;;;;;;5051908;28;20841;-86
2021/07/22 06:47:05;;;;;;;;;;;18.30;99.90;;;;;;5050871;28;19928;-86
2021/07/22 06:49:31;;;;;;;;;;;18.30;99.90;;;;;;5051782;28;19929;-86
2021/07/22 06:51:56;;;;;;;;;;;18.30;99.90;;;;;;5034522;28;19920;-87
2021/07/22 06:54:22;;;;;;;;;;;18.30;99.90;;;;;;5035815;28;20011;-86
2021/07/22 06:56:48;;;;;;;;;;;18.30;99.90;;;;;;5050894;28;20372;-86
2021/07/22 06:59:14;;;;;;;;;;;18.30;99.90;;;;;;5034772;28;20407;-86
2021/07/22 07:01:40;;;;;;;;;;;18.30;99.90;;;;;;5031788;28;19924;-85
2021/07/22 07:04:06;;;;;;;;;;;18.30;99.90;;;;;;5035259;28;20368;-86
2021/07/22 07:06:35;;;;;;;;;;;18.30;99.90;;;;;;5050562;28;19928;-86
2021/07/22 07:09:01;;;;;;;;;;;18.30;99.90;;;;;;5051119;28;19928;-86
2021/07/22 07:11:26;;;;;;;;;;;18.30;99.90;;;;;;5030756;28;19920;-85
2021/07/22 07:13:52;;;;;;;;;;;18.30;99.90;;;;;;5032009;28;20443;-86
2021/07/22 07:16:18;;;;;;;;;;;18.30;99.90;;;;;;5050251;28;19989;-86
2021/07/22 07:18:43;;;;;;;;;;;18.30;99.90;;;;;;5051030;28;19920;-86
2021/07/22 07:21:09;;;;;;;;;;;18.30;99.90;;;;;;5033711;28;19977;-86
2021/07/22 07:23:35;;;;;;;;;;;18.40;99.90;;;;;;5034537;28;19966;-86
2021/07/22 07:26:01;;;;;;;;;;;18.40;99.90;;;;;;5028389;28;19935;-86
2021/07/22 07:28:27;;;;;;;;;;;18.50;99.90;;;;;;5042476;28;19933;-86
2021/07/22 07:30:53;;;;;;;;;;;18.50;99.90;;;;;;5021257;28;20299;-85
2021/07/22 07:33:18;;;;;;;;;;;18.50;99.90;;;;;;5029787;28;19924;-85
2021/07/22 07:35:44;;;;;;;;;;;18.50;99.90;;;;;;5041150;28;20035;-86
2021/07/22 07:38:10;;;;;;;;;;;18.50;99.90;;;;;;5026647;28;19924;-86
2021/07/22 07:40:36;;;;;;;;;;;18.40;99.90;;;;;;5029107;28;19956;-86
2021/07/22 07:43:01;;;;;;;;;;;18.40;99.90;;;;;;5043829;28;19920;-84
2021/07/22 07:45:28;;;;;;;;;;;18.40;99.90;;;;;;5028679;28;19965;-86
2021/07/22 07:47:54;;;;;;;;;;;18.50;99.90;;;;;;5046544;28;19924;-86
2021/07/22 07:50:20;;;;;;;;;;;18.40;99.90;;;;;;5044061;28;19924;-86
2021/07/22 07:52:46;;;;;;;;;;;18.50;99.90;;;;;;5027643;28;19924;-85
2021/07/22 07:55:12;;;;;;;;;;;18.50;99.90;;;;;;5041395;28;19920;-86
2021/07/22 07:57:38;;;;;;;;;;;18.50;99.90;;;;;;5063165;28;19931;-87
2021/07/22 08:00:05;;;;;;;;;;;18.50;99.90;;;;;;5041755;28;19928;-86
2021/07/22 08:02:31;;;;;;;;;;;18.50;99.90;;;;;;5062050;28;20019;-86
2021/07/22 08:04:57;;;;;;;;;;;18.60;99.90;;;;;;5046374;28;20007;-86
2021/07/22 08:07:24;;;;;;;;;;;18.70;99.90;;;;;;5046068;28;19968;-86
2021/07/22 08:09:50;;;;;;;;;;;18.70;99.90;;;;;;5011499;28;19930;-86
2021/07/22 08:12:16;;;;;;;;;;;18.80;99.90;;;;;;5029259;28;20228;-86
2021/07/22 08:14:42;;;;;;;;;;;18.80;99.90;;;;;;5010301;28;19931;-86
2021/07/22 08:17:07;;;;;;;;;;;18.90;99.90;;;;;;5050134;28;20299;-85
2021/07/22 08:19:34;;;;;;;;;;;18.90;99.90;;;;;;5011965;28;20271;-85
2021/07/22 08:22:00;;;;;;;;;;;19.00;99.90;;;;;;5010299;28;19920;-86
2021/07/22 08:24:25;;;;;;;;;;;19.00;99.90;;;;;;5045399;28;20383;-86
2021/07/22 08:26:52;;;;;;;;;;;19.00;99.90;;;;;;5045019;28;19928;-86
2021/07/22 08:29:17;;;;;;;;;;;19.00;99.90;;;;;;5032545;28;19952;-86
2021/07/22 08:31:43;;;;;;;;;;;19.10;99.90;;;;;;5048263;28;19958;-85
2021/07/22 08:34:11;;;;;;;;;;;19.10;99.90;;;;;;5014993;28;20291;-85
2021/07/22 08:36:37;;;;;;;;;;;19.10;99.90;;;;;;5032784;28;19924;-86
2021/07/22 08:39:03;;;;;;;;;;;19.20;99.90;;;;;;5031221;28;19921;-86
2021/07/22 08:41:29;;;;;;;;;;;19.20;99.90;;;;;;5048946;28;20035;-86
2021/07/22 08:43:55;;;;;;;;;;;19.20;99.90;;;;;;5031987;28;19947;-86
2021/07/22 08:46:20;;;;;;;;;;;19.30;99.90;;;;;;5063579;28;20371;-86
2021/07/22 08:48:46;;;;;;;;;;;19.30;99.90;;;;;;5039008;28;20345;-85
2021/07/22 08:51:12;;;;;;;;;;;19.30;99.90;;;;;;5041516;28;19983;-85
2021/07/22 08:53:38;;;;;;;;;;;19.40;99.90;;;;;;5047837;28;19920;-86
2021/07/22 08:56:07;;;;;;;;;;;19.40;99.90;;;;;;5050890;28;20327;-85
2021/07/22 08:58:33;;;;;;;;;;;19.40;99.90;;;;;;5052021;28;19969;-86
2021/07/22 09:01:00;;;;;;;;;;;19.40;99.90;;;;;;5033923;28;19931;-86
2021/07/22 09:03:26;;;;;;;;;;;19.40;99.90;;;;;;5041483;28;20040;-86
2021/07/22 09:05:51;;;;;;;;;;;19.40;99.90;;;;;;5052215;28;20023;-85
2021/07/22 09:08:17;;;;;;;;;;;19.30;99.90;;;;;;5034789;28;19956;-86
2021/07/22 09:10:43;;;;;;;;;;;19.30;99.90;;;;;;5066312;28;20383;-85
2021/07/22 09:13:24;;;;;;;;;;;19.30;99.90;;;;;;5051591;28;20013;-85
2021/07/22 09:15:53;;;;;;;;;;;19.30;99.90;;;;;;5038756;28;19929;-86
2021/07/22 09:18:22;;;;;;;;;;;19.40;99.90;;;;;;5059454;28;19924;-85
2021/07/22 09:20:48;;;;;;;;;;;19.40;99.90;;;;;;5040577;28;19920;-85
2021/07/22 09:23:20;;;;;;;;;;;19.50;99.90;;;;;;5063108;28;19927;-86
2021/07/22 09:25:47;;;;;;;;;;;19.50;99.90;;;;;;5036035;28;20008;-86
2021/07/22 09:28:14;;;;;;;;;;;19.50;99.90;;;;;;5068903;28;19931;-86
2021/07/22 09:30:52;;;;;;;;;;;19.50;99.90;;;;;;5032550;28;19928;-86
2021/07/22 09:33:34;;;;;;;;;;;19.60;99.90;;;;;;5043869;28;19924;-86
2021/07/22 09:36:00;;;;;;;;;;;19.60;99.90;;;;;;5052913;28;19926;-86
2021/07/22 09:38:29;;;;;;;;;;;19.60;99.90;;;;;;5069397;28;19973;-85
2021/07/22 09:40:54;;;;;;;;;;;19.50;99.90;;;;;;5053669;28;20723;-86
2021/07/22 09:43:36;;;;;;;;;;;19.50;99.90;;;;;;5053109;28;20023;-86
2021/07/22 09:46:02;;;;;;;;;;;19.60;99.90;;;;;;5070375;28;19978;-86
2021/07/22 09:48:27;;;;;;;;;;;19.60;99.90;;;;;;5036049;28;19924;-86
2021/07/22 09:50:53;;;;;;;;;;;19.60;99.90;;;;;;5052811;28;20295;-86
2021/07/22 09:53:20;;;;;;;;;;;19.70;99.90;;;;;;5033253;28;20307;-86
2021/07/22 09:55:46;;;;;;;;;;;19.70;99.90;;;;;;5051227;28;19925;-86
2021/07/22 09:58:12;;;;;;;;;;;19.70;99.90;;;;;;5034330;28;20390;-86
2021/07/22 10:00:42;;;;;;;;;;;19.70;99.90;;;;;;5042922;28;19929;-86
2021/07/22 10:03:12;;;;;;;;;;;19.70;99.90;;;;;;5063371;28;19974;-86
2021/07/22 10:05:53;;;;;;;;;;;19.70;99.90;;;;;;5045563;28;20021;-86
2021/07/22 10:08:20;;;;;;;;;;;19.70;99.90;;;;;;5019892;28;19962;-86
2021/07/22 10:10:58;;;;;;;;;;;19.80;99.90;;;;;;5036413;28;20299;-86
2021/07/22 10:13:28;;;;;;;;;;;19.80;99.90;;;;;;5052593;28;19924;-86
2021/07/22 10:15:56;;;;;;;;;;;19.80;99.90;;;;;;5069063;28;19925;-86
2021/07/22 10:18:24;;;;;;;;;;;19.80;99.90;;;;;;5043570;28;20008;-86
2021/07/22 10:20:53;;;;;;;;;;;19.70;99.90;;;;;;5047435;28;19924;-87
2021/07/22 10:23:19;;;;;;;;;;;19.80;99.90;;;;;;5052857;28;19924;-86
2021/07/22 10:25:47;;;;;;;;;;;19.80;99.90;;;;;;5069627;28;19928;-86
2021/07/22 10:28:14;;;;;;;;;;;19.80;99.90;;;;;;5035323;28;19932;-86
2021/07/22 10:30:40;;;;;;;;;;;19.90;99.90;;;;;;5069717;28;20391;-86
2021/07/22 10:33:06;;;;;;;;;;;19.90;99.90;;;;;;5035748;28;19924;-86
2021/07/22 10:35:32;;;;;;;;;;;20.00;99.90;;;;;;5052320;28;20007;-86
2021/07/22 10:38:11;;;;;;;;;;;20.00;99.90;;;;;;5069944;28;20298;-86
2021/07/22 10:40:44;;;;;;;;;;;20.10;99.90;;;;;;5052192;28;19920;-86
2021/07/22 10:43:29;;;;;;;;;;;20.10;99.90;;;;;;5052253;28;20372;-87
2021/07/22 10:45:56;;;;;;;;;;;20.10;99.90;;;;;;5035847;28;19924;-86
2021/07/22 10:48:26;;;;;;;;;;;20.10;99.90;;;;;;5035234;28;19928;-86
2021/07/22 10:50:54;;;;;;;;;;;20.10;99.90;;;;;;5051751;28;19955;-86
2021/07/22 10:53:38;;;;;;;;;;;20.10;99.90;;;;;;5035731;28;19931;-87
2021/07/22 10:56:04;;;;;;;;;;;20.20;99.90;;;;;;5049961;28;19948;-86
2021/07/22 10:58:30;;;;;;;;;;;20.10;99.90;;;;;;5054731;28;19958;-87
2021/07/22 11:00:56;;;;;;;;;;;20.20;99.90;;;;;;5051599;28;19980;-86
2021/07/22 11:03:35;;;;;;;;;;;20.20;99.90;;;;;;5035392;28;19931;-87
2021/07/22 11:06:02;;;;;;;;;;;20.20;99.90;;;;;;5050415;28;19936;-86
2021/07/22 11:08:31;;;;;;;;;;;20.10;99.90;;;;;;5043482;28;20008;-86
2021/07/22 11:10:58;;;;;;;;;;;20.10;99.90;;;;;;5051153;28;20000;-86
2021/07/22 11:13:32;;;;;;;;;;;20.20;99.90;;;;;;5045800;28;19924;-87
2021/07/22 11:15:58;;;;;;;;;;;20.20;99.90;;;;;;5044833;28;20007;-86
2021/07/22 11:18:44;;;;;;;;;;;20.20;99.90;;;;;;5062791;28;20006;-86
2021/07/22 11:21:15;;;;;;;;;;;20.20;99.90;;;;;;4994984;28;22171;-88
2021/07/22 11:23:41;;;;;;;;;;;20.20;99.90;;;;;;5046921;28;19925;-86
2021/07/22 11:26:07;;;;;;;;;;;20.30;99.90;;;;;;5046343;28;19974;-85
2021/07/22 11:28:32;;;;;;;;;;;20.30;99.90;;;;;;5069243;28;20007;-86
2021/07/22 11:31:07;;;;;;;;;;;20.30;99.90;;;;;;5046158;28;19921;-86
2021/07/22 11:33:36;;;;;;;;;;;20.30;99.90;;;;;;5069421;28;20271;-87
2021/07/22 11:36:03;;;;;;;;;;;20.40;99.90;;;;;;5050697;28;20157;-86
2021/07/22 11:38:29;;;;;;;;;;;20.40;99.90;;;;;;5051369;28;19959;-87
2021/07/22 11:40:55;;;;;;;;;;;20.50;99.90;;;;;;5050702;28;19956;-86
2021/07/22 11:43:40;;;;;;;;;;;20.60;99.90;;;;;;5031224;28;19924;-87
2021/07/22 11:46:07;;;;;;;;;;;20.60;99.90;;;;;;5050361;28;19935;-87
2021/07/22 11:48:33;;;;;;;;;;;20.60;99.90;;;;;;5050979;28;20443;-85
2021/07/22 11:50:59;;;;;;;;;;;20.60;99.90;;;;;;5050645;28;20007;-88
2021/07/22 11:53:25;;;;;;;;;;;20.60;99.90;;;;;;5041615;28;19928;-84
2021/07/22 11:55:51;;;;;;;;;;;20.60;99.90;;;;;;5028893;28;20282;-84
2021/07/22 11:58:16;;;;;;;;;;;20.60;99.90;;;;;;5017021;28;19928;-84
2021/07/22 12:00:42;;;;;;;;;;;20.60;99.90;;;;;;5056040;28;19924;-86
2021/07/22 12:03:08;;;;;;;;;;;20.60;99.90;;;;;;5059479;28;19985;-87
2021/07/22 12:05:34;;;;;;;;;;;20.70;99.90;;;;;;5033741;28;20720;-86
2021/07/22 12:08:16;;;;;;;;;;;20.70;99.90;;;;;;5051104;28;19920;-85
2021/07/22 12:10:42;;;;;;;;;;;20.80;99.90;;;;;;5044577;28;19924;-86
2021/07/22 12:13:08;;;;;;;;;;;20.90;99.90;;;;;;5047627;28;19931;-85
2021/07/22 12:15:35;;;;;;;;;;;20.90;99.90;;;;;;5046304;28;19920;-87
2021/07/22 12:18:01;;;;;;;;;;;20.90;99.90;;;;;;5047757;28;19959;-86
2021/07/22 12:20:26;;;;;;;;;;;20.90;99.90;;;;;;5034551;28;20017;-86
2021/07/22 12:22:52;;;;;;;;;;;20.90;99.90;;;;;;5050643;28;19932;-86
2021/07/22 12:25:19;;;;;;;;;;;20.90;99.90;;;;;;5049827;28;19920;-85
2021/07/22 12:27:49;;;;;;;;;;;20.90;99.90;;;;;;5050196;28;20007;-87
2021/07/22 12:30:14;;;;;;;;;;;20.90;99.90;;;;;;5034134;28;19974;-85
2021/07/22 12:32:53;;;;;;;;;;;20.90;99.90;;;;;;5050300;28;19921;-87
2021/07/22 12:35:29;;;;;;;;;;;21.00;99.90;;;;;;5050439;28;20406;-85
2021/07/22 12:37:56;;;;;;;;;;;20.90;99.90;;;;;;5049776;28;19928;-85
2021/07/22 12:40:42;;;;;;;;;;;21.00;99.90;;;;;;5058434;28;19931;-84
2021/07/22 12:43:09;;;;;;;;;;;21.00;99.90;;;;;;5040901;28;19925;-85
2021/07/22 12:45:35;;;;;;;;;;;21.00;99.90;;;;;;5048872;28;20276;-85
2021/07/22 12:48:00;;;;;;;;;;;21.10;99.90;;;;;;5047095;28;19935;-86
2021/07/22 12:50:31;;;;;;;;;;;21.10;99.90;;;;;;5053768;28;20401;-86
2021/07/22 12:53:00;;;;;;;;;;;21.10;99.90;;;;;;5052255;28;19927;-85
2021/07/22 12:55:30;;;;;;;;;;;21.10;99.90;;;;;;5069076;28;19932;-85
2021/07/22 12:57:55;;;;;;;;;;;21.20;99.90;;;;;;5017249;28;20015;-85
2021/07/22 13:00:21;;;;;;;;;;;21.20;99.90;;;;;;5028489;28;20058;-85
2021/07/22 13:02:57;;;;;;;;;;;21.30;99.90;;;;;;5049901;28;20027;-86
2021/07/22 13:05:23;;;;;;;;;;;21.40;99.90;;;;;;5025798;28;19932;-86
2021/07/22 13:07:49;;;;;;;;;;;21.50;99.90;;;;;;5000692;28;19935;-84
2021/07/22 13:10:16;;;;;;;;;;;21.50;99.90;;;;;;5036940;28;19925;-86
2021/07/22 13:12:42;;;;;;;;;;;21.40;99.90;;;;;;5042886;28;19935;-85
2021/07/22 13:15:07;;;;;;;;;;;21.40;99.90;;;;;;5024503;28;20299;-85
2021/07/22 13:17:39;;;;;;;;;;;21.40;99.90;;;;;;5057134;28;19932;-86
2021/07/22 13:20:09;;;;;;;;;;;21.40;99.90;;;;;;5041259;28;20470;-86
2021/07/22 13:22:35;;;;;;;;;;;21.40;99.90;;;;;;5074620;28;19948;-84
2021/07/22 13:25:01;;;;;;;;;;;21.40;99.90;;;;;;5056713;28;20049;-85
2021/07/22 13:27:26;;;;;;;;;;;21.40;99.90;;;;;;5055875;28;20568;-85
2021/07/22 13:29:52;;;;;;;;;;;21.40;99.90;;;;;;5040190;28;19928;-84
2021/07/22 13:32:18;;;;;;;;;;;21.40;99.90;;;;;;5036716;28;19928;-85
2021/07/22 13:34:45;;;;;;;;;;;21.50;99.90;;;;;;5039619;28;19924;-84
2021/07/22 13:37:11;;;;;;;;;;;21.50;99.90;;;;;;5056606;28;19931;-86
2021/07/22 13:39:37;;;;;;;;;;;21.60;99.90;;;;;;5041082;28;19924;-88
2021/07/22 13:42:04;;;;;;;;;;;21.60;99.90;;;;;;5039672;28;19928;-87
2021/07/22 13:44:30;;;;;;;;;;;21.60;99.90;;;;;;5054654;28;19924;-85
2021/07/22 13:46:56;;;;;;;;;;;21.60;99.90;;;;;;5038700;28;19961;-85
2021/07/22 13:49:22;;;;;;;;;;;21.60;99.90;;;;;;5055163;28;20323;-86
2021/07/22 13:51:47;;;;;;;;;;;21.50;99.90;;;;;;5055716;28;20406;-86
2021/07/22 13:54:13;;;;;;;;;;;21.60;99.90;;;;;;5039752;28;19927;-86
2021/07/22 13:56:39;;;;;;;;;;;21.50;99.90;;;;;;5022222;28;19924;-85
2021/07/22 13:59:04;;;;;;;;;;;21.60;99.90;;;;;;5053011;28;19924;-85
2021/07/22 14:01:30;;;;;;;;;;;21.60;99.90;;;;;;5031717;28;20023;-85
2021/07/22 14:03:56;;;;;;;;;;;21.70;99.90;;;;;;5055307;28;19920;-85
2021/07/22 14:06:21;;;;;;;;;;;21.60;99.90;;;;;;5035187;28;19925;-85
2021/07/22 14:08:47;;;;;;;;;;;21.60;99.90;;;;;;5023544;28;20110;-84
2021/07/22 14:11:13;;;;;;;;;;;21.60;99.90;;;;;;5040555;28;20004;-85
2021/07/22 14:13:40;;;;;;;;;;;21.60;99.90;;;;;;5027476;28;19925;-86